createdAt,value
2022-10-29T00:02:03.163Z,92.29
2022-10-29T00:04:30.286Z,92.61
2022-10-29T00:06:57.620Z,92.37
2022-10-29T00:09:24.721Z,92.58
2022-10-29T00:11:52.003Z,92.59
2022-10-29T00:14:19.111Z,92.91
2022-10-29T00:16:46.205Z,93.00
2022-10-29T00:19:13.305Z,92.93
2022-10-29T00:27:09.841Z,92.74
2022-10-29T00:29:37.296Z,93.05
2022-10-29T00:34:49.112Z,93.05
2022-10-29T00:37:16.252Z,93.30
2022-10-29T00:42:27.911Z,92.85
2022-10-29T00:44:55.151Z,92.84
2022-10-29T00:47:26.574Z,92.88
2022-10-29T00:50:04.060Z,92.58
2022-10-29T00:52:34.010Z,92.70
2022-10-29T00:55:05.877Z,92.62
2022-10-29T00:57:43.045Z,92.72
2022-10-29T01:00:10.841Z,92.60
2022-10-29T01:05:26.105Z,92.47
2022-10-29T01:07:53.353Z,92.38
2022-10-29T01:10:32.208Z,92.78
2022-10-29T01:15:58.508Z,92.32
2022-10-29T01:21:36.761Z,92.62
2022-10-29T01:30:35.262Z,92.42
2022-10-29T01:33:16.844Z,92.12
2022-10-29T01:35:56.163Z,92.41
2022-10-29T01:38:31.484Z,92.32
2022-10-29T01:41:40.715Z,92.27
2022-10-29T01:47:17.145Z,92.55
2022-10-29T01:49:50.033Z,92.68
2022-10-29T01:55:04.339Z,92.71
2022-10-29T01:57:39.392Z,92.77
2022-10-29T02:00:10.312Z,93.00
2022-10-29T02:02:48.074Z,92.84
2022-10-29T02:05:50.473Z,92.99
2022-10-29T02:08:36.396Z,92.98
2022-10-29T02:11:18.394Z,93.07
2022-10-29T02:13:52.354Z,93.21
2022-10-29T02:16:20.523Z,93.39
2022-10-29T02:18:49.552Z,93.14
2022-10-29T02:21:18.421Z,93.56
2022-10-29T02:23:45.934Z,93.36
2022-10-29T02:26:14.067Z,93.75
2022-10-29T02:31:25.586Z,93.88
2022-10-29T02:33:52.650Z,93.91
2022-10-29T02:36:20.214Z,94.13
2022-10-29T02:38:47.598Z,94.02
2022-10-29T02:41:14.787Z,94.09
2022-10-29T02:51:55.191Z,94.35
2022-10-29T02:54:22.421Z,94.89
2022-10-29T02:56:49.670Z,94.82
2022-10-29T02:59:16.916Z,94.85
2022-10-29T03:01:44.229Z,94.72
2022-10-29T03:04:12.185Z,94.95
2022-10-29T03:06:39.482Z,94.95
2022-10-29T03:11:51.421Z,95.28
2022-10-29T03:14:18.741Z,95.36
2022-10-29T03:16:46.120Z,95.54
2022-10-29T03:19:13.353Z,95.31
2022-10-29T03:21:40.643Z,95.72
2022-10-29T03:24:07.961Z,95.44
2022-10-29T03:26:35.087Z,95.59
2022-10-29T03:29:02.337Z,95.47
2022-10-29T03:31:29.689Z,95.66
2022-10-29T03:33:56.757Z,95.49
2022-10-29T03:36:24.196Z,95.40
2022-10-29T03:38:51.475Z,95.42
2022-10-29T03:44:02.964Z,95.92
2022-10-29T03:46:30.138Z,95.56
2022-10-29T03:48:57.481Z,95.64
2022-10-29T03:51:24.729Z,95.63
2022-10-29T03:53:51.795Z,95.69
2022-10-29T03:56:19.115Z,95.89
2022-10-29T03:58:46.231Z,95.98
2022-10-29T04:03:58.071Z,96.02
2022-10-29T04:06:25.130Z,96.28
2022-10-29T04:08:52.162Z,96.28
2022-10-29T04:11:19.443Z,96.13
2022-10-29T04:13:46.695Z,96.42
2022-10-29T04:28:17.814Z,96.57
2022-10-29T04:30:04.887Z,96.75
2022-10-29T04:32:31.922Z,96.49
2022-10-29T04:37:43.596Z,97.07
2022-10-29T04:40:11.021Z,96.84
2022-10-29T04:42:39.465Z,97.08
2022-10-29T04:45:08.060Z,96.98
2022-10-29T04:47:35.162Z,97.21
2022-10-29T04:50:02.193Z,97.43
2022-10-29T04:52:29.276Z,97.68
2022-10-29T04:54:56.581Z,97.60
2022-10-29T04:57:23.831Z,97.55
2022-10-29T04:59:51.012Z,97.49
2022-10-29T05:02:18.376Z,97.79
2022-10-29T05:04:45.624Z,97.62
2022-10-29T05:07:12.864Z,97.76
2022-10-29T05:09:40.020Z,98.18
2022-10-29T05:12:07.861Z,98.08
2022-10-29T05:14:35.135Z,98.04
2022-10-29T05:17:02.307Z,98.27
2022-10-29T05:19:29.631Z,98.33
2022-10-29T05:21:56.915Z,97.90
2022-10-29T05:24:24.124Z,98.00
2022-10-29T05:26:51.375Z,98.64
2022-10-29T05:29:18.436Z,98.53
2022-10-29T05:31:45.515Z,98.54
2022-10-29T05:34:12.640Z,98.83
2022-10-29T05:36:39.861Z,98.72
2022-10-29T05:39:07.062Z,99.12
2022-10-29T05:41:34.145Z,99.08
2022-10-29T05:44:01.512Z,98.94
2022-10-29T05:46:28.762Z,99.30
2022-10-29T05:48:56.141Z,99.71
2022-10-29T05:51:23.412Z,99.58
2022-10-29T05:53:50.930Z,99.88
2022-10-29T05:56:18.121Z,99.72
2022-10-29T05:58:45.471Z,100.00
2022-10-29T06:01:12.895Z,100.00
2022-10-29T06:06:25.122Z,100.00
2022-10-29T06:08:52.483Z,100.00
2022-10-29T06:11:19.673Z,100.00
2022-10-29T06:13:46.928Z,100.00
2022-10-29T06:18:58.751Z,100.00
2022-10-29T06:21:26.001Z,100.00
2022-10-29T06:23:54.563Z,100.00
2022-10-29T06:26:21.940Z,100.00
2022-10-29T06:28:49.140Z,100.00
2022-10-29T06:31:16.472Z,100.00
2022-10-29T06:33:43.843Z,100.00
2022-10-29T06:36:11.163Z,100.00
2022-10-29T06:38:38.260Z,100.00
2022-10-29T06:41:06.074Z,100.00
2022-10-29T06:43:33.234Z,100.00
2022-10-29T06:46:00.355Z,100.00
2022-10-29T06:48:27.581Z,100.00
2022-10-29T06:50:54.863Z,100.00
2022-10-29T06:53:21.951Z,100.00
2022-10-29T06:58:33.964Z,100.00
2022-10-29T07:01:01.613Z,100.00
2022-10-29T07:03:28.879Z,100.00
2022-10-29T07:05:57.976Z,100.00
2022-10-29T07:11:09.721Z,100.00
2022-10-29T07:13:37.266Z,100.00
2022-10-29T07:16:04.529Z,100.00
2022-10-29T07:18:33.222Z,100.00
2022-10-29T07:21:02.916Z,100.00
2022-10-29T07:26:02.960Z,100.00
2022-10-29T07:28:30.066Z,100.00
2022-10-29T07:36:32.454Z,100.00
2022-10-29T07:38:59.717Z,100.00
2022-10-29T07:44:11.614Z,100.00
2022-10-29T07:49:23.315Z,100.00
2022-10-29T07:51:50.732Z,100.00
2022-10-29T07:54:17.794Z,100.00
2022-10-29T07:56:47.622Z,100.00
2022-10-29T08:02:00.500Z,100.00
2022-10-29T08:04:27.705Z,100.00
2022-10-29T08:06:55.088Z,100.00
2022-10-29T08:09:22.242Z,100.00
2022-10-29T08:11:49.619Z,100.00
2022-10-29T08:14:18.888Z,100.00
2022-10-29T08:16:47.451Z,100.00
2022-10-29T08:19:14.571Z,100.00
2022-10-29T08:21:41.727Z,100.00
2022-10-29T08:24:10.653Z,100.00
2022-10-29T08:26:37.977Z,100.00
2022-10-29T08:29:05.535Z,100.00
2022-10-29T08:31:32.897Z,100.00
2022-10-29T08:34:00.170Z,100.00
2022-10-29T08:39:12.095Z,100.00
2022-10-29T08:42:05.322Z,100.00
2022-10-29T08:44:54.280Z,100.00
2022-10-29T08:47:23.810Z,99.83
2022-10-29T08:50:31.240Z,99.25
2022-10-29T08:53:22.288Z,99.40
2022-10-29T08:55:47.426Z,99.20
2022-10-29T08:58:29.803Z,99.11
2022-10-29T09:00:59.162Z,98.91
2022-10-29T09:03:32.423Z,98.72
2022-10-29T09:09:12.341Z,98.98
2022-10-29T09:12:01.541Z,98.99
2022-10-29T09:14:57.378Z,99.12
2022-10-29T09:17:39.531Z,98.75
2022-10-29T09:20:15.481Z,98.28
2022-10-29T09:23:11.893Z,98.06
2022-10-29T09:25:47.991Z,97.24
2022-10-29T09:28:25.401Z,97.06
2022-10-29T09:31:16.872Z,96.52
2022-10-29T09:33:48.610Z,96.27
2022-10-29T09:36:19.852Z,95.21
2022-10-29T09:41:45.121Z,94.99
2022-10-29T09:44:26.012Z,94.53
2022-10-29T09:49:50.135Z,93.97
2022-10-29T09:52:23.400Z,94.33
2022-10-29T09:54:53.271Z,94.51
2022-10-29T10:00:26.430Z,93.82
2022-10-29T10:03:13.305Z,92.83
2022-10-29T10:06:03.437Z,92.44
2022-10-29T10:08:32.286Z,92.06
2022-10-29T10:11:05.066Z,91.60
2022-10-29T10:13:38.896Z,91.82
2022-10-29T10:16:07.109Z,91.49
2022-10-29T10:18:34.411Z,90.69
2022-10-29T10:21:11.381Z,89.89
2022-10-29T10:23:46.756Z,90.17
2022-10-29T10:26:34.025Z,89.33
2022-10-29T10:29:16.775Z,88.63
2022-10-29T10:31:55.854Z,88.70
2022-10-29T10:34:32.758Z,89.56
2022-10-29T10:37:19.326Z,89.22
2022-10-29T10:40:02.050Z,89.34
2022-10-29T10:42:34.682Z,89.77
2022-10-29T10:45:05.866Z,89.38
2022-10-29T10:47:36.564Z,89.39
2022-10-29T10:50:28.588Z,89.27
2022-10-29T10:52:58.995Z,88.82
2022-10-29T10:55:39.035Z,88.72
2022-10-29T10:58:23.207Z,89.22
2022-10-29T11:01:22.842Z,89.15
2022-10-29T11:04:19.525Z,89.45
2022-10-29T11:06:52.472Z,89.46
2022-10-29T11:09:37.573Z,89.30
2022-10-29T11:15:15.864Z,87.25
2022-10-29T11:18:12.499Z,86.97
2022-10-29T11:20:43.802Z,86.28
2022-10-29T11:23:44.082Z,85.63
2022-10-29T11:26:21.096Z,85.89
2022-10-29T11:28:58.622Z,86.20
2022-10-29T11:31:52.601Z,85.22
2022-10-29T11:37:43.367Z,85.03
2022-10-29T11:40:23.437Z,83.85
2022-10-29T11:42:50.887Z,83.70
2022-10-29T11:45:37.466Z,83.07
2022-10-29T11:48:10.747Z,83.78
2022-10-29T11:50:53.552Z,84.02
2022-10-29T11:53:43.149Z,84.67
2022-10-29T11:56:40.615Z,84.24
2022-10-29T11:59:30.990Z,84.34
2022-10-29T12:02:08.173Z,84.94
2022-10-29T12:04:42.436Z,84.34
2022-10-29T12:07:43.057Z,84.57
2022-10-29T12:10:18.832Z,84.16
2022-10-29T12:16:31.356Z,84.57
2022-10-29T12:19:27.799Z,82.41
2022-10-29T12:22:46.207Z,82.84
2022-10-29T12:25:20.796Z,82.13
2022-10-29T12:27:56.635Z,82.41
2022-10-29T12:33:27.668Z,82.26
2022-10-29T12:36:22.911Z,82.74
2022-10-29T12:38:58.028Z,82.24
2022-10-29T12:44:44.952Z,82.77
2022-10-29T12:47:34.082Z,82.93
2022-10-29T12:50:34.760Z,83.23
2022-10-29T12:53:16.701Z,83.01
2022-10-29T12:55:46.985Z,83.19
2022-10-29T12:58:46.462Z,84.05
2022-10-29T13:01:57.282Z,83.57
2022-10-29T13:04:32.612Z,83.57
2022-10-29T13:07:06.538Z,83.88
2022-10-29T13:09:36.323Z,84.20
2022-10-29T13:12:26.044Z,83.86
2022-10-29T13:15:01.336Z,84.04
2022-10-29T13:17:31.867Z,83.59
2022-10-29T13:20:07.507Z,83.85
2022-10-29T13:31:20.999Z,84.10
2022-10-29T13:33:48.306Z,84.13
2022-10-29T13:36:19.333Z,83.97
2022-10-29T13:39:05.798Z,83.92
2022-10-29T13:44:28.142Z,84.26
2022-10-29T13:47:15.425Z,84.09
2022-10-29T13:49:50.248Z,84.62
2022-10-29T13:52:22.889Z,84.36
2022-10-29T13:55:07.457Z,84.40
2022-10-29T13:57:51.188Z,84.48
2022-10-29T14:00:22.560Z,84.34
2022-10-29T14:03:04.880Z,83.62
2022-10-29T14:05:34.746Z,83.94
2022-10-29T14:08:31.284Z,84.33
2022-10-29T14:11:01.206Z,83.98
2022-10-29T14:16:20.795Z,84.22
2022-10-29T14:21:38.972Z,84.10
2022-10-29T14:24:09.586Z,84.19
2022-10-29T14:26:39.837Z,84.55
2022-10-29T14:29:26.347Z,84.60
2022-10-29T14:32:18.717Z,84.80
2022-10-29T14:34:51.174Z,84.83
2022-10-29T14:37:39.380Z,84.98
2022-10-29T14:40:21.865Z,85.03
2022-10-29T14:42:54.312Z,85.20
2022-10-29T14:45:29.987Z,85.38
2022-10-29T14:48:10.568Z,85.43
2022-10-29T14:50:37.949Z,85.43
2022-10-29T14:53:19.355Z,85.59
2022-10-29T14:55:49.073Z,85.30
2022-10-29T14:58:28.236Z,85.72
2022-10-29T15:01:09.547Z,85.38
2022-10-29T15:03:37.026Z,85.62
2022-10-29T15:06:18.150Z,85.68
2022-10-29T15:08:53.457Z,86.07
2022-10-29T15:11:40.402Z,85.84
2022-10-29T15:16:59.768Z,85.76
2022-10-29T15:19:27.414Z,85.56
2022-10-29T15:21:54.853Z,85.62
2022-10-29T15:24:24.643Z,85.55
2022-10-29T15:26:59.646Z,85.27
2022-10-29T15:29:34.750Z,85.02
2022-10-29T15:32:02.860Z,84.87
2022-10-29T15:34:37.427Z,84.57
2022-10-29T15:37:19.705Z,84.67
2022-10-29T15:40:02.676Z,84.20
2022-10-29T15:42:32.995Z,84.07
2022-10-29T15:45:09.494Z,84.07
2022-10-29T15:47:38.584Z,83.80
2022-10-29T15:50:07.874Z,83.88
2022-10-29T15:52:59.685Z,83.78
2022-10-29T15:55:34.825Z,83.59
2022-10-29T15:58:13.537Z,83.71
2022-10-29T16:00:41.197Z,83.82
2022-10-29T16:03:14.205Z,83.79
2022-10-29T16:05:43.184Z,83.75
2022-10-29T16:08:33.584Z,83.74
2022-10-29T16:11:01.765Z,84.03
2022-10-29T16:13:30.915Z,83.92
2022-10-29T16:18:25.277Z,84.01
2022-10-29T16:20:58.706Z,84.09
2022-10-29T16:23:25.836Z,83.99
2022-10-29T16:25:52.987Z,84.10
2022-10-29T16:28:20.140Z,84.26
2022-10-29T16:30:53.384Z,84.27
2022-10-29T16:33:20.735Z,84.33
2022-10-29T16:35:47.921Z,84.68
2022-10-29T16:38:17.042Z,84.96
2022-10-29T16:40:44.722Z,84.68
2022-10-29T16:45:58.496Z,85.15
2022-10-29T16:48:28.446Z,85.31
2022-10-29T16:50:55.741Z,85.59
2022-10-29T16:53:22.946Z,85.83
2022-10-29T16:55:50.115Z,85.82
2022-10-29T16:58:18.356Z,86.42
2022-10-29T17:03:30.275Z,87.11
2022-10-29T17:06:07.233Z,87.36
2022-10-29T17:11:19.601Z,87.57
2022-10-29T17:13:46.909Z,88.12
2022-10-29T17:16:19.161Z,88.48
2022-10-29T17:18:50.874Z,88.38
2022-10-29T17:21:18.572Z,88.68
2022-10-29T17:26:30.362Z,88.92
2022-10-29T17:28:57.507Z,88.91
2022-10-29T17:31:26.041Z,88.96
2022-10-29T17:33:53.548Z,89.06
2022-10-29T17:36:21.163Z,89.52
2022-10-29T17:38:48.473Z,89.43
2022-10-29T17:41:15.633Z,89.43
2022-10-29T17:46:27.613Z,89.47
2022-10-29T17:48:56.515Z,90.07
2022-10-29T17:51:24.459Z,90.08
2022-10-29T17:53:51.616Z,90.74
2022-10-29T17:56:18.722Z,90.31
2022-10-29T17:58:45.962Z,90.54
2022-10-29T18:01:13.400Z,90.74
2022-10-29T18:06:25.417Z,90.94
2022-10-29T18:08:52.737Z,91.17
2022-10-29T18:11:22.123Z,91.73
2022-10-29T18:16:35.123Z,91.21
2022-10-29T18:19:03.880Z,91.69
2022-10-29T18:21:32.032Z,91.68
2022-10-29T18:23:59.111Z,91.61
2022-10-29T18:26:33.247Z,91.87
2022-10-29T18:29:08.737Z,92.10
2022-10-29T18:31:37.818Z,91.91
2022-10-29T18:34:07.929Z,92.54
2022-10-29T18:36:39.186Z,92.11
2022-10-29T18:39:06.750Z,92.33
2022-10-29T18:41:34.910Z,92.49
2022-10-29T18:44:02.572Z,93.02
2022-10-29T18:46:29.757Z,93.54
2022-10-29T18:48:56.925Z,93.47
2022-10-29T18:51:26.906Z,93.70
2022-10-29T18:53:55.781Z,93.52
2022-10-29T18:56:24.131Z,93.57
2022-10-29T19:01:37.340Z,93.93
2022-10-29T19:04:07.565Z,93.62
2022-10-29T19:06:36.679Z,93.71
2022-10-29T19:09:07.554Z,93.95
2022-10-29T19:14:19.963Z,94.09
2022-10-29T19:16:47.162Z,94.22
2022-10-29T19:19:16.130Z,94.07
2022-10-29T19:21:45.787Z,94.25
2022-10-29T19:24:15.142Z,94.37
2022-10-29T19:26:42.883Z,94.35
2022-10-29T19:29:10.590Z,94.35
2022-10-29T19:31:37.826Z,94.04
2022-10-29T19:34:07.488Z,94.13
2022-10-29T19:36:36.625Z,94.07
2022-10-29T19:39:04.744Z,93.90
2022-10-29T19:41:33.152Z,93.80
2022-10-29T19:44:01.607Z,94.27
2022-10-29T19:46:29.828Z,94.57
2022-10-29T19:48:58.806Z,94.59
2022-10-29T19:51:26.774Z,94.55
2022-10-29T19:53:54.194Z,94.52
2022-10-29T19:56:22.194Z,94.90
2022-10-29T19:58:49.380Z,94.58
2022-10-29T20:01:18.237Z,94.93
2022-10-29T20:03:46.694Z,94.76
2022-10-29T20:06:14.904Z,95.17
2022-10-29T20:08:42.085Z,95.16
2022-10-29T20:11:09.560Z,95.33
2022-10-29T20:13:37.165Z,95.88
2022-10-29T20:16:12.225Z,96.11
2022-10-29T20:21:24.249Z,96.61
2022-10-29T20:23:51.333Z,96.96
2022-10-29T20:26:18.652Z,96.75
2022-10-29T20:28:45.859Z,97.09
2022-10-29T20:31:37.212Z,97.63
2022-10-29T20:34:09.513Z,97.83
2022-10-29T20:36:36.914Z,97.71
2022-10-29T20:39:04.260Z,98.34
2022-10-29T20:41:31.715Z,98.51
2022-10-29T20:44:01.828Z,98.53
2022-10-29T20:46:29.652Z,99.16
2022-10-29T20:48:57.072Z,98.56
2022-10-29T20:51:24.725Z,98.48
2022-10-29T20:53:53.333Z,98.97
2022-10-29T20:56:22.393Z,98.84
2022-10-29T20:58:49.424Z,98.94
2022-10-29T21:01:19.225Z,98.79
2022-10-29T21:03:49.394Z,99.15
2022-10-29T21:06:17.756Z,99.06
2022-10-29T21:08:50.182Z,99.41
2022-10-29T21:11:19.410Z,99.17
2022-10-29T21:13:46.958Z,99.31
2022-10-29T21:19:09.334Z,99.40
2022-10-29T21:21:36.810Z,99.52
2022-10-29T21:24:04.232Z,99.26
2022-10-29T21:26:31.384Z,99.34
2022-10-29T21:28:58.774Z,99.28
2022-10-29T21:31:26.144Z,99.65
2022-10-29T21:33:54.340Z,99.22
2022-10-29T21:39:07.011Z,99.13
2022-10-29T21:41:34.057Z,99.28
2022-10-29T21:44:01.145Z,98.88
2022-10-29T21:46:28.309Z,99.21
2022-10-29T21:48:56.783Z,99.23
2022-10-29T21:51:23.970Z,99.47
2022-10-29T21:53:51.077Z,99.35
2022-10-29T21:56:18.472Z,99.34
2022-10-29T21:58:45.847Z,99.37
2022-10-29T22:01:16.932Z,99.55
2022-10-29T22:03:46.040Z,99.55
2022-10-29T22:06:21.626Z,99.64
2022-10-29T22:08:57.033Z,99.82
2022-10-29T22:11:27.197Z,99.54
2022-10-29T22:13:54.718Z,100.00
2022-10-29T22:16:23.393Z,99.76
2022-10-29T22:18:51.236Z,100.00
2022-10-29T22:21:21.426Z,100.00
2022-10-29T22:23:50.887Z,100.00
2022-10-29T22:26:20.470Z,99.63
2022-10-29T22:28:48.207Z,100.00
2022-10-29T22:31:16.527Z,100.00
2022-10-29T22:33:45.048Z,100.00
2022-10-29T22:36:17.099Z,100.00
2022-10-29T22:38:45.034Z,100.00
2022-10-29T22:41:17.707Z,100.00
2022-10-29T22:43:45.511Z,100.00
2022-10-29T22:46:14.910Z,100.00
2022-10-29T22:48:43.815Z,100.00
2022-10-29T22:51:15.376Z,100.00
2022-10-29T22:53:43.589Z,100.00
2022-10-29T22:56:18.689Z,100.00
2022-10-29T23:01:37.359Z,100.00
2022-10-29T23:04:07.532Z,100.00
2022-10-29T23:06:34.661Z,100.00
2022-10-29T23:09:02.071Z,100.00
2022-10-29T23:11:31.281Z,100.00
2022-10-29T23:14:00.549Z,100.00
2022-10-29T23:16:30.072Z,100.00
2022-10-29T23:18:59.771Z,100.00
2022-10-29T23:21:27.592Z,100.00
2022-10-29T23:23:55.516Z,100.00
2022-10-29T23:26:24.363Z,100.00
2022-10-29T23:28:51.957Z,100.00
2022-10-29T23:31:23.356Z,100.00
2022-10-29T23:36:38.995Z,100.00
2022-10-29T23:39:06.113Z,100.00
2022-10-29T23:41:33.425Z,100.00
2022-10-29T23:44:00.651Z,100.00
2022-10-29T23:46:27.724Z,100.00
2022-10-29T23:48:54.994Z,100.00
2022-10-29T23:51:22.231Z,100.00
2022-10-29T23:53:51.818Z,100.00
2022-10-29T23:56:22.055Z,100.00
2022-10-29T23:58:49.161Z,100.00
